Time;durP1;ratioP1;P1;durP2;ratioP2;P2;SDS_P1;SDS_P2;PMS_P1;PMS_P2;Temp;Humidity;BMP_temperature;BMP_pressure;BME280_temperature;BME280_humidity;BME280_pressure;Samples;Min_cycle;Max_cycle;Signal;HPM_P1;HPM_P2
2021/01/07 00:00:23;;;;;;;;;;;2.80;99.90;;;;;;5025449;28;19917;-72
2021/01/07 00:02:51;;;;;;;;;;;2.80;99.90;;;;;;5025607;28;19956;-72
2021/01/07 00:05:17;;;;;;;;;;;2.70;99.90;;;;;;5024388;28;20312;-70
2021/01/07 00:07:42;;;;;;;;;;;2.70;99.90;;;;;;5025537;28;20003;-72
2021/01/07 00:10:08;;;;;;;;;;;2.70;99.90;;;;;;5025479;28;19929;-72
2021/01/07 00:12:36;;;;;;;;;;;2.60;99.90;;;;;;5025525;28;19917;-72
2021/01/07 00:15:01;;;;;;;;;;;2.60;99.90;;;;;;5025768;28;19913;-72
2021/01/07 00:17:27;;;;;;;;;;;2.50;99.90;;;;;;5024409;28;19923;-71
2021/01/07 00:19:55;;;;;;;;;;;2.50;99.90;;;;;;5025198;28;19970;-71
2021/01/07 00:22:20;;;;;;;;;;;2.50;99.90;;;;;;5024153;28;20749;-72
2021/01/07 00:24:46;;;;;;;;;;;2.50;99.90;;;;;;5022804;28;19925;-72
2021/01/07 00:27:12;;;;;;;;;;;2.50;99.90;;;;;;5022890;28;19995;-71
2021/01/07 00:29:37;;;;;;;;;;;2.50;99.90;;;;;;5025372;28;19916;-71
2021/01/07 00:32:03;;;;;;;;;;;2.40;99.90;;;;;;5024795;28;19920;-71
2021/01/07 00:34:28;;;;;;;;;;;2.50;99.90;;;;;;5037590;28;20571;-72
2021/01/07 00:36:57;;;;;;;;;;;2.50;99.90;;;;;;5024749;28;19909;-71
2021/01/07 00:39:25;;;;;;;;;;;2.50;99.90;;;;;;5023354;28;19963;-71
2021/01/07 00:41:54;;;;;;;;;;;2.50;99.90;;;;;;5024294;28;19957;-72
2021/01/07 00:44:20;;;;;;;;;;;2.50;99.90;;;;;;5023139;28;19924;-72
2021/01/07 00:46:45;;;;;;;;;;;2.50;99.90;;;;;;5022394;28;19912;-72
2021/01/07 00:49:11;;;;;;;;;;;2.40;99.90;;;;;;5020703;28;19940;-72
2021/01/07 00:51:36;;;;;;;;;;;2.40;99.90;;;;;;5020707;28;19913;-72
2021/01/07 00:54:02;;;;;;;;;;;2.30;99.90;;;;;;5024121;28;19917;-72
2021/01/07 00:56:28;;;;;;;;;;;2.30;99.90;;;;;;5036339;28;20008;-71
2021/01/07 00:58:53;;;;;;;;;;;2.20;99.90;;;;;;5021945;28;19914;-71
2021/01/07 01:01:19;;;;;;;;;;;2.30;99.90;;;;;;5022187;28;20103;-72
2021/01/07 01:03:44;;;;;;;;;;;2.30;99.90;;;;;;5023565;28;20058;-72
2021/01/07 01:06:10;;;;;;;;;;;2.30;99.90;;;;;;5023803;28;20389;-71
2021/01/07 01:08:35;;;;;;;;;;;2.40;99.90;;;;;;5024074;28;19941;-72
2021/01/07 01:11:01;;;;;;;;;;;2.30;99.90;;;;;;5022917;28;19927;-71
2021/01/07 01:13:26;;;;;;;;;;;2.40;99.90;;;;;;5022859;28;19972;-71
2021/01/07 01:15:54;;;;;;;;;;;2.40;99.90;;;;;;5020117;28;19916;-71
2021/01/07 01:18:20;;;;;;;;;;;2.30;99.90;;;;;;5022054;28;19920;-71
2021/01/07 01:20:45;;;;;;;;;;;2.30;99.90;;;;;;5037673;28;20358;-71
2021/01/07 01:23:11;;;;;;;;;;;2.30;99.90;;;;;;5021997;28;19913;-72
2021/01/07 01:25:36;;;;;;;;;;;2.30;99.90;;;;;;5015878;28;673274;-71
2021/01/07 01:28:02;;;;;;;;;;;2.20;99.90;;;;;;5025532;28;19917;-72
2021/01/07 01:30:28;;;;;;;;;;;2.10;99.90;;;;;;5024345;28;19917;-71
2021/01/07 01:32:55;;;;;;;;;;;2.10;99.90;;;;;;5023999;28;19909;-71
2021/01/07 01:35:21;;;;;;;;;;;2.10;99.90;;;;;;5026352;28;19952;-71
2021/01/07 01:37:46;;;;;;;;;;;2.00;99.90;;;;;;5025607;28;19948;-71
2021/01/07 01:40:12;;;;;;;;;;;2.00;99.90;;;;;;5026013;28;19909;-71
2021/01/07 01:42:40;;;;;;;;;;;2.00;99.90;;;;;;5024897;28;20618;-71
2021/01/07 01:45:06;;;;;;;;;;;1.90;99.90;;;;;;5056503;28;19948;-71
2021/01/07 01:47:32;;;;;;;;;;;1.90;99.90;;;;;;5023462;28;19956;-71
2021/01/07 01:50:00;;;;;;;;;;;1.90;99.90;;;;;;5023304;28;19909;-71
2021/01/07 01:52:28;;;;;;;;;;;1.80;99.90;;;;;;5024861;28;20761;-71
2021/01/07 01:54:54;;;;;;;;;;;1.80;99.90;;;;;;5023639;28;19917;-71
2021/01/07 01:57:24;;;;;;;;;;;1.80;99.90;;;;;;5023180;28;19913;-71
2021/01/07 01:59:49;;;;;;;;;;;1.80;99.90;;;;;;5023284;28;20534;-71
2021/01/07 02:02:18;;;;;;;;;;;1.80;99.90;;;;;;5025040;28;19996;-71
2021/01/07 02:04:46;;;;;;;;;;;1.70;99.90;;;;;;5060366;28;19914;-71
2021/01/07 02:07:17;;;;;;;;;;;1.80;99.90;;;;;;5058913;28;19959;-71
2021/01/07 02:09:43;;;;;;;;;;;1.70;99.90;;;;;;5058802;28;19909;-71
2021/01/07 02:12:09;;;;;;;;;;;1.70;99.90;;;;;;5027569;28;20013;-71
2021/01/07 02:14:37;;;;;;;;;;;1.80;99.90;;;;;;5027905;28;19948;-71
2021/01/07 02:17:05;;;;;;;;;;;1.70;99.90;;;;;;5057919;28;19917;-71
2021/01/07 02:19:31;;;;;;;;;;;1.70;99.90;;;;;;5027879;28;19917;-71
2021/01/07 02:21:59;;;;;;;;;;;1.70;99.90;;;;;;5028058;28;19984;-71
2021/01/07 02:24:27;;;;;;;;;;;1.70;99.90;;;;;;5028378;28;19932;-71
2021/01/07 02:26:54;;;;;;;;;;;1.70;99.90;;;;;;5027256;28;19920;-71
2021/01/07 02:29:20;;;;;;;;;;;1.70;99.90;;;;;;5027193;28;20385;-71
2021/01/07 02:31:46;;;;;;;;;;;1.70;99.90;;;;;;5026913;28;19917;-71
2021/01/07 02:34:14;;;;;;;;;;;1.70;99.90;;;;;;5028241;28;19913;-71
2021/01/07 02:36:39;;;;;;;;;;;1.70;99.90;;;;;;5028596;28;19916;-71
2021/01/07 02:39:05;;;;;;;;;;;1.70;99.90;;;;;;5026066;28;19909;-71
2021/01/07 02:41:30;;;;;;;;;;;1.70;99.90;;;;;;5028973;28;19927;-71
2021/01/07 02:43:56;;;;;;;;;;;1.70;99.90;;;;;;5029446;28;19908;-71
2021/01/07 02:46:21;;;;;;;;;;;1.70;99.90;;;;;;5028875;28;19925;-71
2021/01/07 02:48:47;;;;;;;;;;;1.70;99.90;;;;;;5026621;28;20404;-71
2021/01/07 02:51:12;;;;;;;;;;;1.70;99.90;;;;;;5027106;28;20285;-71
2021/01/07 02:53:38;;;;;;;;;;;1.70;99.90;;;;;;5027776;28;19913;-71
2021/01/07 02:56:03;;;;;;;;;;;1.70;99.90;;;;;;5025640;28;19974;-71
2021/01/07 02:58:29;;;;;;;;;;;1.70;99.90;;;;;;5026117;28;19951;-71
2021/01/07 03:00:57;;;;;;;;;;;1.70;99.90;;;;;;5025932;28;19972;-71
2021/01/07 03:03:22;;;;;;;;;;;1.70;99.90;;;;;;5031947;28;19978;-71
2021/01/07 03:05:51;;;;;;;;;;;1.70;99.90;;;;;;5026916;28;19920;-71
2021/01/07 03:08:16;;;;;;;;;;;1.70;99.90;;;;;;5025423;28;19909;-71
2021/01/07 03:10:42;;;;;;;;;;;1.70;99.90;;;;;;5025916;28;19920;-71
2021/01/07 03:13:10;;;;;;;;;;;1.70;99.90;;;;;;5025417;28;19913;-71
2021/01/07 03:15:35;;;;;;;;;;;1.60;99.90;;;;;;5026704;28;20011;-71
2021/01/07 03:18:01;;;;;;;;;;;1.70;99.90;;;;;;5026913;28;19991;-71
2021/01/07 03:20:27;;;;;;;;;;;1.70;99.90;;;;;;5028008;28;19959;-71
2021/01/07 03:22:52;;;;;;;;;;;1.70;99.90;;;;;;5041425;28;19925;-71
2021/01/07 03:25:18;;;;;;;;;;;1.70;99.90;;;;;;5025579;28;20386;-71
2021/01/07 03:27:44;;;;;;;;;;;1.60;99.90;;;;;;5026861;28;20286;-71
2021/01/07 03:30:12;;;;;;;;;;;1.60;99.90;;;;;;5025628;28;20358;-71
2021/01/07 03:32:40;;;;;;;;;;;1.70;99.90;;;;;;5026297;28;19909;-71
2021/01/07 03:35:06;;;;;;;;;;;1.70;99.90;;;;;;5026434;28;20079;-71
2021/01/07 03:37:31;;;;;;;;;;;1.70;99.90;;;;;;5010735;28;20397;-71
2021/01/07 03:39:57;;;;;;;;;;;1.70;99.90;;;;;;5023987;28;20007;-71
2021/01/07 03:42:23;;;;;;;;;;;1.70;99.90;;;;;;5025372;28;20434;-71
2021/01/07 03:44:48;;;;;;;;;;;1.60;99.90;;;;;;5026390;28;20038;-71
2021/01/07 03:47:16;;;;;;;;;;;1.60;99.90;;;;;;5024557;28;19968;-71
2021/01/07 03:49:42;;;;;;;;;;;1.60;99.90;;;;;;5025076;28;19996;-71
2021/01/07 03:52:07;;;;;;;;;;;1.60;99.90;;;;;;5026874;28;19993;-71
2021/01/07 03:54:35;;;;;;;;;;;1.60;99.90;;;;;;5024100;28;19909;-71
2021/01/07 03:57:03;;;;;;;;;;;1.60;99.90;;;;;;5025597;28;20365;-74
2021/01/07 03:59:28;;;;;;;;;;;1.60;99.90;;;;;;5023341;28;19924;-74
2021/01/07 04:01:56;;;;;;;;;;;1.60;99.90;;;;;;5023856;28;19912;-74
2021/01/07 04:04:22;;;;;;;;;;;1.60;99.90;;;;;;5024544;28;19909;-74
2021/01/07 04:06:47;;;;;;;;;;;1.60;99.90;;;;;;5026044;28;19928;-74
2021/01/07 04:09:13;;;;;;;;;;;1.60;99.90;;;;;;5024170;28;19913;-74
2021/01/07 04:11:38;;;;;;;;;;;1.60;99.90;;;;;;5007483;28;19927;-74
2021/01/07 04:14:06;;;;;;;;;;;1.60;99.90;;;;;;5025732;28;19979;-74
2021/01/07 04:16:34;;;;;;;;;;;1.70;99.90;;;;;;5024927;28;19917;-74
2021/01/07 04:18:59;;;;;;;;;;;1.70;99.90;;;;;;5025325;28;20087;-74
2021/01/07 04:21:27;;;;;;;;;;;1.70;99.90;;;;;;5024674;28;19913;-74
2021/01/07 04:23:53;;;;;;;;;;;1.70;99.90;;;;;;5024418;28;19913;-74
2021/01/07 04:26:18;;;;;;;;;;;1.70;99.90;;;;;;5057907;28;20004;-74
2021/01/07 04:28:46;;;;;;;;;;;1.80;99.90;;;;;;5057804;28;19967;-74
2021/01/07 04:31:14;;;;;;;;;;;1.80;99.90;;;;;;5023262;28;19917;-74
2021/01/07 04:33:42;;;;;;;;;;;1.90;99.90;;;;;;5024092;28;20261;-74
2021/01/07 04:36:07;;;;;;;;;;;1.80;99.90;;;;;;5023349;28;19966;-74
2021/01/07 04:38:33;;;;;;;;;;;1.90;99.90;;;;;;5024496;28;19909;-74
2021/01/07 04:40:58;;;;;;;;;;;1.90;99.90;;;;;;5024831;28;19917;-74
2021/01/07 04:43:27;;;;;;;;;;;1.80;99.90;;;;;;5021773;28;19983;-74
2021/01/07 04:45:54;;;;;;;;;;;1.80;99.90;;;;;;5023623;28;19959;-74
2021/01/07 04:48:22;;;;;;;;;;;1.70;99.90;;;;;;5022659;28;19944;-73
2021/01/07 04:50:50;;;;;;;;;;;1.80;99.90;;;;;;5008958;28;21899;-74
2021/01/07 04:53:18;;;;;;;;;;;1.80;99.90;;;;;;5020730;28;19920;-74
2021/01/07 04:55:43;;;;;;;;;;;1.70;99.90;;;;;;5037771;28;19920;-73
2021/01/07 04:58:11;;;;;;;;;;;1.70;99.90;;;;;;5057391;28;19917;-74
2021/01/07 05:00:39;;;;;;;;;;;1.70;99.90;;;;;;5023239;28;19913;-74
2021/01/07 05:03:07;;;;;;;;;;;1.70;99.90;;;;;;5025324;28;19948;-74
2021/01/07 05:05:35;;;;;;;;;;;1.70;99.90;;;;;;5020915;28;20467;-74
2021/01/07 05:08:06;;;;;;;;;;;1.60;99.90;;;;;;5005434;28;20425;-74
2021/01/07 05:10:32;;;;;;;;;;;1.60;99.90;;;;;;5024113;28;19916;-74
2021/01/07 05:12:57;;;;;;;;;;;1.70;99.90;;;;;;5056661;28;19917;-74
2021/01/07 05:15:25;;;;;;;;;;;1.70;99.90;;;;;;5022693;28;19932;-74
2021/01/07 05:17:53;;;;;;;;;;;1.70;99.90;;;;;;5023508;28;20031;-74
2021/01/07 05:20:21;;;;;;;;;;;1.70;99.90;;;;;;5056134;28;20371;-74
2021/01/07 05:22:47;;;;;;;;;;;1.70;99.90;;;;;;5022685;28;19952;-74
2021/01/07 05:25:15;;;;;;;;;;;1.80;99.90;;;;;;5023603;28;19960;-74
2021/01/07 05:27:41;;;;;;;;;;;1.80;99.90;;;;;;5023251;28;19917;-74
2021/01/07 05:30:07;;;;;;;;;;;1.70;99.90;;;;;;5038730;28;19914;-74
2021/01/07 05:32:35;;;;;;;;;;;1.80;99.90;;;;;;5021224;28;20007;-74
2021/01/07 05:35:01;;;;;;;;;;;1.80;99.90;;;;;;5025029;28;19967;-74
2021/01/07 05:37:31;;;;;;;;;;;1.80;99.90;;;;;;5026311;28;19959;-74
2021/01/07 05:39:59;;;;;;;;;;;1.80;99.90;;;;;;5025808;28;19952;-74
2021/01/07 05:42:25;;;;;;;;;;;1.80;99.90;;;;;;5026450;28;19971;-74
2021/01/07 05:44:50;;;;;;;;;;;1.80;99.90;;;;;;5043780;28;19948;-74
2021/01/07 05:47:27;;;;;;;;;;;1.80;99.90;;;;;;5027493;28;19917;-74
2021/01/07 05:49:53;;;;;;;;;;;1.90;99.90;;;;;;5028049;28;19917;-74
2021/01/07 05:52:21;;;;;;;;;;;1.90;99.90;;;;;;5028652;28;20612;-74
2021/01/07 05:54:49;;;;;;;;;;;2.00;99.90;;;;;;5026081;28;19913;-74
2021/01/07 05:57:15;;;;;;;;;;;2.00;99.90;;;;;;5026015;28;19968;-74
2021/01/07 05:59:40;;;;;;;;;;;2.00;99.90;;;;;;5011977;28;20044;-74
2021/01/07 06:02:08;;;;;;;;;;;2.10;99.90;;;;;;5059981;28;19971;-74
2021/01/07 06:04:33;;;;;;;;;;;2.10;99.90;;;;;;5026766;28;19924;-74
2021/01/07 06:07:04;;;;;;;;;;;2.10;99.90;;;;;;5026964;28;19992;-74
2021/01/07 06:09:32;;;;;;;;;;;2.20;99.90;;;;;;5038731;28;19909;-74
2021/01/07 06:12:00;;;;;;;;;;;2.20;99.90;;;;;;5057701;28;19959;-74
2021/01/07 06:14:25;;;;;;;;;;;2.20;99.90;;;;;;5026219;28;19926;-74
2021/01/07 06:16:54;;;;;;;;;;;2.20;99.90;;;;;;5026154;28;19920;-74
2021/01/07 06:19:32;;;;;;;;;;;2.20;99.90;;;;;;5043228;28;19924;-74
2021/01/07 06:22:03;;;;;;;;;;;2.30;99.90;;;;;;5058634;28;19978;-74
2021/01/07 06:24:31;;;;;;;;;;;2.30;99.90;;;;;;5026129;28;19970;-73
2021/01/07 06:27:06;;;;;;;;;;;2.30;99.90;;;;;;5026799;28;20331;-74
2021/01/07 06:29:34;;;;;;;;;;;2.30;99.90;;;;;;5038812;28;20008;-74
2021/01/07 06:31:59;;;;;;;;;;;2.30;99.90;;;;;;5027572;28;19920;-74
2021/01/07 06:34:25;;;;;;;;;;;2.30;99.90;;;;;;5027550;28;19913;-74
2021/01/07 06:36:53;;;;;;;;;;;2.20;99.90;;;;;;5028030;28;19984;-74
2021/01/07 06:39:24;;;;;;;;;;;2.20;99.90;;;;;;5041053;28;19923;-74
2021/01/07 06:41:56;;;;;;;;;;;2.20;99.90;;;;;;5024328;28;20019;-74
2021/01/07 06:44:22;;;;;;;;;;;2.10;99.90;;;;;;5024755;28;19915;-74
2021/01/07 06:46:50;;;;;;;;;;;2.20;99.90;;;;;;5025335;28;19920;-74
2021/01/07 06:49:16;;;;;;;;;;;2.20;99.90;;;;;;5024298;28;19956;-74
2021/01/07 06:51:48;;;;;;;;;;;2.20;99.90;;;;;;5024501;28;20362;-74
2021/01/07 06:54:16;;;;;;;;;;;2.20;99.90;;;;;;5038862;28;19920;-74
2021/01/07 06:56:44;;;;;;;;;;;2.30;99.90;;;;;;5025290;28;19912;-74
2021/01/07 06:59:13;;;;;;;;;;;2.30;99.90;;;;;;5025881;28;19944;-74
2021/01/07 07:01:46;;;;;;;;;;;2.30;99.90;;;;;;5026869;28;19913;-74
2021/01/07 07:04:18;;;;;;;;;;;2.30;99.90;;;;;;5055958;28;19921;-74
2021/01/07 07:06:48;;;;;;;;;;;2.30;99.90;;;;;;5037761;28;19967;-73
2021/01/07 07:09:18;;;;;;;;;;;2.30;99.90;;;;;;5023637;28;19952;-74
2021/01/07 07:11:50;;;;;;;;;;;2.30;99.90;;;;;;5026832;28;19986;-74
2021/01/07 07:14:16;;;;;;;;;;;2.30;99.90;;;;;;5021881;28;19955;-74
2021/01/07 07:16:42;;;;;;;;;;;2.30;99.90;;;;;;5037315;28;19948;-74
2021/01/07 07:19:10;;;;;;;;;;;2.30;99.90;;;;;;5037732;28;20303;-74
2021/01/07 07:21:36;;;;;;;;;;;2.30;99.90;;;;;;5021890;28;20488;-74
2021/01/07 07:24:08;;;;;;;;;;;2.30;99.90;;;;;;5039827;28;19959;-74
2021/01/07 07:26:36;;;;;;;;;;;2.30;99.90;;;;;;5037809;28;19917;-74
2021/01/07 07:29:15;;;;;;;;;;;2.30;99.90;;;;;;5054431;28;19973;-74
2021/01/07 07:31:47;;;;;;;;;;;2.20;99.90;;;;;;5023933;28;19916;-74
2021/01/07 07:34:14;;;;;;;;;;;2.20;99.90;;;;;;5036307;28;19909;-74
2021/01/07 07:36:39;;;;;;;;;;;2.20;99.90;;;;;;5025385;28;19917;-74
2021/01/07 07:39:07;;;;;;;;;;;2.20;99.90;;;;;;5022067;28;19920;-74
2021/01/07 07:41:42;;;;;;;;;;;2.20;99.90;;;;;;5024451;28;19924;-74
2021/01/07 07:44:07;;;;;;;;;;;2.20;99.90;;;;;;5024713;28;19924;-74
2021/01/07 07:46:36;;;;;;;;;;;2.10;99.90;;;;;;5057911;28;20550;-75
2021/01/07 07:49:02;;;;;;;;;;;2.20;99.90;;;;;;5040117;28;19909;-74
2021/01/07 07:51:30;;;;;;;;;;;2.20;99.90;;;;;;5024135;28;19917;-74
2021/01/07 07:54:09;;;;;;;;;;;2.20;99.90;;;;;;5023122;28;19913;-73
2021/01/07 07:56:35;;;;;;;;;;;2.10;99.90;;;;;;5023073;28;19917;-73
2021/01/07 07:59:01;;;;;;;;;;;2.20;99.90;;;;;;5024195;28;19982;-78
2021/01/07 08:01:48;;;;;;;;;;;2.20;99.90;;;;;;5024062;28;19909;-74
2021/01/07 08:04:17;;;;;;;;;;;2.10;99.90;;;;;;5023543;28;19921;-74
2021/01/07 08:06:43;;;;;;;;;;;2.10;99.90;;;;;;5054362;28;19917;-75
2021/01/07 08:09:09;;;;;;;;;;;2.10;99.90;;;;;;5023415;28;19956;-74
2021/01/07 08:11:44;;;;;;;;;;;2.10;99.90;;;;;;5022744;28;20004;-74
2021/01/07 08:14:12;;;;;;;;;;;2.00;99.90;;;;;;5022205;28;19963;-74
2021/01/07 08:16:38;;;;;;;;;;;2.00;99.90;;;;;;5023194;28;19928;-74
2021/01/07 08:19:27;;;;;;;;;;;2.00;99.90;;;;;;5054455;28;19917;-74
2021/01/07 08:21:53;;;;;;;;;;;2.00;99.90;;;;;;5021564;28;19913;-74
2021/01/07 08:24:19;;;;;;;;;;;2.00;99.90;;;;;;5022704;28;19927;-74
2021/01/07 08:26:46;;;;;;;;;;;2.00;99.90;;;;;;5025287;28;20358;-74
2021/01/07 08:29:14;;;;;;;;;;;2.10;99.90;;;;;;5022307;28;19917;-74
2021/01/07 08:31:44;;;;;;;;;;;2.10;99.90;;;;;;5022059;28;19909;-74
2021/01/07 08:34:09;;;;;;;;;;;2.10;99.90;;;;;;5022134;28;20020;-74
2021/01/07 08:36:35;;;;;;;;;;;2.10;99.90;;;;;;5023226;28;20366;-74
2021/01/07 08:39:03;;;;;;;;;;;2.10;99.90;;;;;;5022582;28;19909;-75
2021/01/07 08:41:31;;;;;;;;;;;2.10;99.90;;;;;;5022907;28;20391;-74
2021/01/07 08:44:01;;;;;;;;;;;2.10;99.90;;;;;;5021959;28;19909;-74
2021/01/07 08:46:37;;;;;;;;;;;2.20;99.90;;;;;;5023059;28;19909;-75
2021/01/07 08:49:06;;;;;;;;;;;2.10;99.90;;;;;;5022393;28;19913;-75
2021/01/07 08:51:41;;;;;;;;;;;2.20;99.90;;;;;;5040267;28;19948;-74
2021/01/07 08:54:11;;;;;;;;;;;2.20;99.90;;;;;;5023046;28;19909;-74
2021/01/07 08:56:37;;;;;;;;;;;2.20;99.90;;;;;;5021189;28;20468;-74
2021/01/07 08:59:22;;;;;;;;;;;2.20;99.90;;;;;;5039817;28;19917;-75
2021/01/07 09:01:51;;;;;;;;;;;2.20;99.90;;;;;;5023628;28;19920;-74
2021/01/07 09:04:23;;;;;;;;;;;2.20;99.90;;;;;;5037520;28;19917;-75
2021/01/07 09:07:01;;;;;;;;;;;2.20;99.90;;;;;;5022697;28;20349;-75
2021/01/07 09:09:37;;;;;;;;;;;2.20;99.90;;;;;;5022877;28;19928;-75
2021/01/07 09:12:09;;;;;;;;;;;2.20;99.90;;;;;;5024866;28;19920;-74
2021/01/07 09:14:55;;;;;;;;;;;2.30;99.90;;;;;;5028661;28;19940;-74
2021/01/07 09:17:21;;;;;;;;;;;2.20;99.90;;;;;;5025826;28;19917;-75
2021/01/07 09:19:52;;;;;;;;;;;2.30;99.90;;;;;;5044242;28;19909;-74
2021/01/07 09:22:22;;;;;;;;;;;2.20;99.90;;;;;;5025871;28;20004;-74
2021/01/07 09:24:50;;;;;;;;;;;2.30;99.90;;;;;;5010065;28;19921;-75
2021/01/07 09:27:18;;;;;;;;;;;2.30;99.90;;;;;;5056615;28;19917;-74
2021/01/07 09:29:46;;;;;;;;;;;2.30;99.90;;;;;;5027113;28;19924;-75
2021/01/07 09:32:12;;;;;;;;;;;2.40;99.90;;;;;;5006956;28;19976;-74
2021/01/07 09:34:38;;;;;;;;;;;2.40;99.90;;;;;;5039449;28;19909;-75
2021/01/07 09:37:06;;;;;;;;;;;2.40;99.90;;;;;;5026612;28;20004;-75
2021/01/07 09:39:32;;;;;;;;;;;2.40;99.90;;;;;;5027379;28;20081;-75
2021/01/07 09:42:00;;;;;;;;;;;2.50;99.90;;;;;;5025880;28;19964;-75
2021/01/07 09:44:26;;;;;;;;;;;2.50;99.90;;;;;;5026697;28;20003;-74
2021/01/07 09:46:55;;;;;;;;;;;2.50;99.90;;;;;;5025410;28;20543;-74
2021/01/07 09:49:23;;;;;;;;;;;2.60;99.90;;;;;;5025422;28;19917;-75
2021/01/07 09:51:51;;;;;;;;;;;2.60;99.90;;;;;;5011433;28;19925;-74
2021/01/07 09:54:16;;;;;;;;;;;2.60;99.90;;;;;;5058389;28;20327;-74
2021/01/07 09:56:42;;;;;;;;;;;2.70;99.90;;;;;;5025876;28;19909;-74
2021/01/07 09:59:12;;;;;;;;;;;2.70;99.90;;;;;;5040552;28;19917;-74
2021/01/07 10:01:40;;;;;;;;;;;2.70;99.90;;;;;;5026123;28;19920;-74
2021/01/07 10:04:06;;;;;;;;;;;2.70;99.90;;;;;;5025794;28;20297;-74
2021/01/07 10:06:31;;;;;;;;;;;2.70;99.90;;;;;;5057669;28;19913;-74
2021/01/07 10:08:57;;;;;;;;;;;2.70;99.90;;;;;;5026018;28;19913;-74
2021/01/07 10:11:22;;;;;;;;;;;2.70;99.90;;;;;;5024280;28;20303;-74
2021/01/07 10:13:50;;;;;;;;;;;2.70;99.90;;;;;;5025513;28;20486;-74
2021/01/07 10:16:18;;;;;;;;;;;2.70;99.90;;;;;;5027469;28;19956;-75
2021/01/07 10:18:43;;;;;;;;;;;2.70;99.90;;;;;;5026328;28;19921;-74
2021/01/07 10:21:10;;;;;;;;;;;2.70;99.90;;;;;;5025398;28;19985;-74
2021/01/07 10:23:37;;;;;;;;;;;2.70;99.90;;;;;;5025715;28;19974;-74
2021/01/07 10:26:05;;;;;;;;;;;2.70;99.90;;;;;;5024543;28;19955;-75
2021/01/07 10:28:30;;;;;;;;;;;2.80;99.90;;;;;;5024818;28;19909;-74
2021/01/07 10:30:56;;;;;;;;;;;2.70;99.90;;;;;;5025273;28;20039;-75
2021/01/07 10:33:24;;;;;;;;;;;2.80;99.90;;;;;;5024080;28;19924;-74
2021/01/07 10:35:52;;;;;;;;;;;2.80;99.90;;;;;;5024227;28;20491;-74
2021/01/07 10:38:24;;;;;;;;;;;2.80;99.90;;;;;;5024217;28;20148;-75
2021/01/07 10:40:51;;;;;;;;;;;2.90;99.90;;;;;;5024370;28;19917;-74
2021/01/07 10:43:19;;;;;;;;;;;2.80;99.90;;;;;;5025524;28;19924;-75
2021/01/07 10:45:44;;;;;;;;;;;2.90;99.90;;;;;;5057448;28;20031;-74
2021/01/07 10:48:14;;;;;;;;;;;2.90;99.90;;;;;;5025199;28;20576;-75
2021/01/07 10:50:44;;;;;;;;;;;2.90;99.90;;;;;;5024489;28;19929;-74
2021/01/07 10:53:12;;;;;;;;;;;2.90;99.90;;;;;;5024767;28;19920;-75
2021/01/07 10:55:41;;;;;;;;;;;2.80;99.90;;;;;;5025857;28;19924;-74
2021/01/07 10:58:25;;;;;;;;;;;2.80;99.90;;;;;;5023111;28;20262;-74
2021/01/07 11:01:09;;;;;;;;;;;2.70;99.90;;;;;;5024041;28;20346;-74
2021/01/07 11:03:39;;;;;;;;;;;2.70;99.90;;;;;;5025099;28;21945;-75
2021/01/07 11:06:07;;;;;;;;;;;2.80;99.90;;;;;;5023985;28;20038;-75
2021/01/07 11:08:55;;;;;;;;;;;2.80;99.90;;;;;;5023656;28;19921;-75
2021/01/07 11:11:24;;;;;;;;;;;2.80;99.90;;;;;;5022542;28;19947;-74
2021/01/07 11:13:52;;;;;;;;;;;2.90;99.90;;;;;;5040873;28;19923;-74
2021/01/07 11:16:22;;;;;;;;;;;2.80;99.90;;;;;;5037507;28;19975;-75
2021/01/07 11:18:48;;;;;;;;;;;2.80;99.90;;;;;;5024362;28;19921;-75
2021/01/07 11:21:16;;;;;;;;;;;2.90;99.90;;;;;;5024523;28;20007;-75
2021/01/07 11:23:42;;;;;;;;;;;2.90;99.90;;;;;;5055010;28;19917;-74
2021/01/07 11:26:10;;;;;;;;;;;2.90;99.90;;;;;;5052463;28;19917;-74
2021/01/07 11:28:41;;;;;;;;;;;2.90;99.90;;;;;;5054089;28;19979;-74
2021/01/07 11:31:07;;;;;;;;;;;2.90;99.90;;;;;;5023789;28;19976;-74
2021/01/07 11:33:33;;;;;;;;;;;3.00;99.90;;;;;;5022250;28;20012;-74
2021/01/07 11:36:00;;;;;;;;;;;3.00;99.90;;;;;;5037555;28;19968;-74
2021/01/07 11:38:27;;;;;;;;;;;3.00;99.90;;;;;;5021565;28;19909;-75
2021/01/07 11:40:53;;;;;;;;;;;3.00;99.90;;;;;;5024829;28;19920;-74
2021/01/07 11:43:38;;;;;;;;;;;3.00;99.90;;;;;;5022227;28;19924;-74
2021/01/07 11:46:05;;;;;;;;;;;3.00;99.90;;;;;;5024572;28;20003;-74
2021/01/07 11:48:31;;;;;;;;;;;3.00;99.90;;;;;;5022876;28;19913;-74
2021/01/07 11:50:58;;;;;;;;;;;3.10;99.90;;;;;;5022897;28;19917;-74
2021/01/07 11:53:26;;;;;;;;;;;3.10;99.90;;;;;;5056540;28;20119;-74
2021/01/07 11:55:52;;;;;;;;;;;3.10;99.90;;;;;;5025081;28;19940;-74
2021/01/07 11:58:22;;;;;;;;;;;3.10;99.90;;;;;;5025886;28;20481;-74
2021/01/07 12:00:49;;;;;;;;;;;3.10;99.90;;;;;;5027182;28;20039;-75
2021/01/07 12:03:17;;;;;;;;;;;3.10;99.90;;;;;;4676674;28;10000445;-74
2021/01/07 12:05:45;;;;;;;;;;;3.10;99.90;;;;;;5035716;28;19979;-74
2021/01/07 12:08:35;;;;;;;;;;;3.10;99.90;;;;;;5057032;28;20091;-74
2021/01/07 12:11:03;;;;;;;;;;;3.10;99.90;;;;;;5024906;28;20516;-74
2021/01/07 12:13:29;;;;;;;;;;;3.10;99.90;;;;;;5024639;28;19923;-74
2021/01/07 12:15:55;;;;;;;;;;;3.10;99.90;;;;;;5025039;28;19909;-72
2021/01/07 12:18:26;;;;;;;;;;;3.10;99.90;;;;;;5026069;28;19917;-72
2021/01/07 12:20:54;;;;;;;;;;;3.20;99.90;;;;;;5027064;28;19924;-74
2021/01/07 12:23:22;;;;;;;;;;;3.20;99.90;;;;;;5041769;28;19979;-74
2021/01/07 12:25:47;;;;;;;;;;;3.20;99.90;;;;;;5025518;28;19963;-74
2021/01/07 12:28:17;;;;;;;;;;;3.20;99.90;;;;;;5025447;28;19913;-74
2021/01/07 12:30:46;;;;;;;;;;;3.30;99.90;;;;;;5040098;28;19913;-74
2021/01/07 12:33:15;;;;;;;;;;;3.30;99.90;;;;;;5056485;28;20277;-74
2021/01/07 12:35:41;;;;;;;;;;;3.40;99.90;;;;;;5028022;28;20009;-74
2021/01/07 12:38:07;;;;;;;;;;;3.40;99.90;;;;;;5040413;28;19971;-74
2021/01/07 12:40:36;;;;;;;;;;;3.40;99.90;;;;;;5057165;28;19917;-74
2021/01/07 12:43:01;;;;;;;;;;;3.40;99.90;;;;;;5023662;28;19979;-74
2021/01/07 12:45:29;;;;;;;;;;;3.40;99.90;;;;;;5025375;28;20539;-74
2021/01/07 12:47:57;;;;;;;;;;;3.40;99.90;;;;;;5023453;28;19913;-74
2021/01/07 12:50:23;;;;;;;;;;;3.40;99.90;;;;;;5023310;28;19939;-74
2021/01/07 12:52:51;;;;;;;;;;;3.40;99.90;;;;;;5041049;28;20342;-74
2021/01/07 12:55:16;;;;;;;;;;;3.40;99.90;;;;;;5024988;28;19913;-74
2021/01/07 12:57:42;;;;;;;;;;;3.40;99.90;;;;;;5057355;28;20425;-74
2021/01/07 13:00:13;;;;;;;;;;;3.40;99.90;;;;;;5024729;28;20287;-74
2021/01/07 13:03:00;;;;;;;;;;;3.40;99.90;;;;;;5038520;28;19923;-74
2021/01/07 13:05:27;;;;;;;;;;;3.40;99.90;;;;;;5024531;28;19909;-74
2021/01/07 13:07:54;;;;;;;;;;;3.40;99.90;;;;;;5026694;28;19975;-74
2021/01/07 13:10:19;;;;;;;;;;;3.40;99.90;;;;;;5023779;28;19928;-74
2021/01/07 13:12:45;;;;;;;;;;;3.40;99.90;;;;;;5021708;28;19909;-74
2021/01/07 13:15:11;;;;;;;;;;;3.40;99.90;;;;;;5058445;28;19909;-74
2021/01/07 13:17:37;;;;;;;;;;;3.40;99.90;;;;;;5025835;28;19924;-74
2021/01/07 13:20:03;;;;;;;;;;;3.50;99.90;;;;;;5041287;28;19910;-74
2021/01/07 13:22:31;;;;;;;;;;;3.50;99.90;;;;;;5024168;28;19943;-74
2021/01/07 13:24:58;;;;;;;;;;;3.50;99.90;;;;;;5026541;28;19913;-74
2021/01/07 13:27:24;;;;;;;;;;;3.50;99.90;;;;;;5023590;28;19917;-74
2021/01/07 13:29:51;;;;;;;;;;;3.60;99.90;;;;;;5026167;28;19977;-74
2021/01/07 13:32:17;;;;;;;;;;;3.60;99.90;;;;;;5023024;28;19928;-74
2021/01/07 13:34:45;;;;;;;;;;;3.60;99.90;;;;;;5023625;28;19909;-74
2021/01/07 13:37:17;;;;;;;;;;;3.50;99.90;;;;;;5055927;28;19965;-74
2021/01/07 13:39:44;;;;;;;;;;;3.50;99.90;;;;;;5056678;28;19913;-74
2021/01/07 13:42:13;;;;;;;;;;;3.60;99.90;;;;;;5007176;28;19924;-74
2021/01/07 13:44:40;;;;;;;;;;;3.50;99.90;;;;;;5023359;28;19963;-74
2021/01/07 13:47:06;;;;;;;;;;;3.50;99.90;;;;;;5055309;28;19917;-74
2021/01/07 13:49:32;;;;;;;;;;;3.50;99.90;;;;;;5039100;28;20012;-75
2021/01/07 13:51:58;;;;;;;;;;;3.50;99.90;;;;;;5055503;28;20308;-74
2021/01/07 13:54:26;;;;;;;;;;;3.50;99.90;;;;;;5056992;28;19995;-74
2021/01/07 13:56:51;;;;;;;;;;;3.50;99.90;;;;;;5024996;28;19975;-74
2021/01/07 13:59:17;;;;;;;;;;;3.40;99.90;;;;;;5028631;28;19913;-74
2021/01/07 14:01:43;;;;;;;;;;;3.40;99.90;;;;;;5026422;28;20245;-73
2021/01/07 14:04:08;;;;;;;;;;;3.40;99.90;;;;;;5026834;28;19921;-73
2021/01/07 14:06:39;;;;;;;;;;;3.40;99.90;;;;;;5025802;28;20333;-76
2021/01/07 14:09:09;;;;;;;;;;;3.40;99.90;;;;;;5026644;28;19909;-74
2021/01/07 14:11:35;;;;;;;;;;;3.40;99.90;;;;;;5058522;28;19945;-74
2021/01/07 14:14:04;;;;;;;;;;;3.40;99.90;;;;;;5042480;28;19909;-74
2021/01/07 14:16:30;;;;;;;;;;;3.40;99.90;;;;;;5041127;28;20375;-74
2021/01/07 14:18:56;;;;;;;;;;;3.40;99.90;;;;;;5027789;28;19952;-74
2021/01/07 14:21:21;;;;;;;;;;;3.40;99.90;;;;;;5026796;28;19916;-74
2021/01/07 14:23:47;;;;;;;;;;;3.30;99.90;;;;;;5060681;28;20484;-74
2021/01/07 14:26:15;;;;;;;;;;;3.30;99.90;;;;;;5025260;28;19928;-74
2021/01/07 14:28:46;;;;;;;;;;;3.40;99.90;;;;;;5026556;28;19913;-74
2021/01/07 14:31:14;;;;;;;;;;;3.30;99.90;;;;;;5027858;28;19909;-74
2021/01/07 14:33:40;;;;;;;;;;;3.30;99.90;;;;;;5025592;28;19927;-74